Time;durP1;ratioP1;P1;durP2;ratioP2;P2;SDS_P1;SDS_P2;PMS_P1;PMS_P2;Temp;Humidity;BMP_temperature;BMP_pressure;BME280_temperature;BME280_humidity;BME280_pressure;Samples;Min_cycle;Max_cycle;Signal;HPM_P1;HPM_P2
2023/06/06 00:01:59;;;;;;;;;;;;;;;18.72;62.17;98292.91;7392878;19;19925;-79
2023/06/06 00:04:27;;;;;;;;;;;;;;;18.70;62.54;98299.50;7389839;19;19914;-79
2023/06/06 00:06:54;;;;;;;;;;;;;;;18.66;62.51;98288.38;7384699;19;19936;-79
2023/06/06 00:09:21;;;;;;;;;;;;;;;18.65;62.89;98295.59;7386043;19;19922;-79
2023/06/06 00:11:48;;;;;;;;;;;;;;;18.63;62.69;98291.47;7390466;19;19938;-80
2023/06/06 00:14:22;;;;;;;;;;;;;;;18.56;63.05;98290.66;7384108;19;19946;-79
2023/06/06 00:16:49;;;;;;;;;;;;;;;18.58;63.17;98299.31;7389592;19;19921;-79
2023/06/06 00:19:16;;;;;;;;;;;;;;;18.56;63.62;98296.88;7389963;19;19934;-79
2023/06/06 00:21:43;;;;;;;;;;;;;;;18.45;63.50;98294.78;7386847;19;19946;-79
2023/06/06 00:24:11;;;;;;;;;;;;;;;18.46;63.86;98299.13;7380591;19;19911;-79
2023/06/06 00:26:38;;;;;;;;;;;;;;;18.48;64.06;98298.91;7391766;19;19955;-79
2023/06/06 00:29:05;;;;;;;;;;;;;;;18.46;64.11;98303.66;7387194;19;19919;-79
2023/06/06 00:31:32;;;;;;;;;;;;;;;18.41;63.88;98299.75;7384234;19;20520;-78
2023/06/06 00:33:58;;;;;;;;;;;;;;;18.44;64.25;98298.50;7385632;19;19922;-79
2023/06/06 00:36:25;;;;;;;;;;;;;;;18.40;64.34;98297.28;7385442;19;19982;-79
2023/06/06 00:38:55;;;;;;;;;;;;;;;18.37;64.18;98293.16;7388735;19;19927;-79
2023/06/06 00:41:23;;;;;;;;;;;;;;;18.35;64.13;98297.91;7379727;19;19951;-79
2023/06/06 00:43:50;;;;;;;;;;;;;;;18.37;64.45;98301.19;7387136;19;20315;-78
2023/06/06 00:46:16;;;;;;;;;;;;;;;18.35;64.18;98300.59;7389384;19;19926;-78
2023/06/06 00:48:43;;;;;;;;;;;;;;;18.33;64.47;98302.66;7386213;19;19923;-79
2023/06/06 00:51:10;;;;;;;;;;;;;;;18.30;65.04;98297.72;7375972;19;20265;-79
2023/06/06 00:53:37;;;;;;;;;;;;;;;18.29;65.11;98298.72;7387759;19;19936;-79
2023/06/06 00:56:04;;;;;;;;;;;;;;;18.21;64.67;98298.94;7383737;19;19914;-78
2023/06/06 00:58:31;;;;;;;;;;;;;;;18.18;64.87;98294.81;7384910;19;19910;-79
2023/06/06 01:01:01;;;;;;;;;;;;;;;18.15;64.91;98299.78;7384082;19;20361;-78
2023/06/06 01:03:29;;;;;;;;;;;;;;;18.08;65.19;98304.28;7386489;19;19919;-79
2023/06/06 01:05:56;;;;;;;;;;;;;;;18.05;65.15;98305.53;7386265;19;19922;-78
2023/06/06 01:08:23;;;;;;;;;;;;;;;18.03;65.36;98302.22;7384135;19;19914;-79
2023/06/06 01:10:51;;;;;;;;;;;;;;;18.04;65.42;98303.06;7381407;19;19918;-79
2023/06/06 01:13:50;;;;;;;;;;;;;;;18.00;65.53;98291.94;7380526;19;19929;-79
2023/06/06 01:16:18;;;;;;;;;;;;;;;17.97;65.71;98292.34;7381773;19;19923;-79
2023/06/06 01:18:46;;;;;;;;;;;;;;;17.95;65.51;98289.88;7386877;19;20259;-79
2023/06/06 01:21:12;;;;;;;;;;;;;;;17.90;65.92;98291.50;7381912;19;19986;-79
2023/06/06 01:23:45;;;;;;;;;;;;;;;17.88;66.04;98289.06;7389058;19;19925;-79
2023/06/06 01:26:12;;;;;;;;;;;;;;;17.89;66.04;98287.19;7386320;19;19918;-79
2023/06/06 01:28:39;;;;;;;;;;;;;;;17.87;65.77;98284.72;7383539;19;20121;-79
2023/06/06 01:31:06;;;;;;;;;;;;;;;17.85;66.12;98289.47;7376344;19;19922;-79
2023/06/06 01:33:33;;;;;;;;;;;;;;;17.84;65.65;98287.00;7386205;19;20711;-79
2023/06/06 01:36:16;;;;;;;;;;;;;;;17.83;65.64;98286.16;7387156;19;19923;-79
2023/06/06 01:38:43;;;;;;;;;;;;;;;17.84;65.63;98289.66;7388320;19;20252;-79
2023/06/06 01:41:10;;;;;;;;;;;;;;;17.84;65.60;98284.31;7383732;19;19919;-79
2023/06/06 01:43:37;;;;;;;;;;;;;;;17.83;65.59;98288.03;7388910;19;19919;-79
2023/06/06 01:46:04;;;;;;;;;;;;;;;17.75;65.66;98279.13;7380574;19;19922;-79
2023/06/06 01:48:30;;;;;;;;;;;;;;;17.76;66.09;98286.13;7379429;19;19930;-79
2023/06/06 01:50:57;;;;;;;;;;;;;;;17.77;66.18;98292.28;7382911;19;20337;-79
2023/06/06 01:53:24;;;;;;;;;;;;;;;17.75;65.93;98289.00;7381328;19;19922;-79
2023/06/06 01:55:51;;;;;;;;;;;;;;;17.74;66.11;98292.69;7384188;19;19919;-79
2023/06/06 01:58:18;;;;;;;;;;;;;;;17.69;65.82;98287.13;7381427;19;20394;-80
2023/06/06 02:00:45;;;;;;;;;;;;;;;17.64;65.84;98294.94;7377776;19;19919;-79
2023/06/06 02:03:12;;;;;;;;;;;;;;;17.61;65.84;98298.03;7380078;19;20966;-78
2023/06/06 02:05:39;;;;;;;;;;;;;;;17.56;65.69;98303.97;7382392;19;19923;-79
2023/06/06 02:08:06;;;;;;;;;;;;;;;17.56;65.84;98295.94;7378568;19;19939;-79
2023/06/06 02:10:33;;;;;;;;;;;;;;;17.57;66.06;98299.47;7385444;19;19915;-79
2023/06/06 02:13:00;;;;;;;;;;;;;;;17.60;66.43;98302.56;7386504;19;19922;-79
2023/06/06 02:15:29;;;;;;;;;;;;;;;17.59;66.40;98297.41;7383647;19;19982;-79
2023/06/06 02:17:56;;;;;;;;;;;;;;;17.54;66.17;98306.88;7381669;19;19919;-78
2023/06/06 02:20:25;;;;;;;;;;;;;;;17.52;66.19;98298.22;7378051;19;19935;-78
2023/06/06 02:22:52;;;;;;;;;;;;;;;17.49;66.51;98306.66;7378052;19;19931;-78
2023/06/06 02:25:19;;;;;;;;;;;;;;;17.46;66.51;98306.25;7382745;19;19944;-78
2023/06/06 02:27:48;;;;;;;;;;;;;;;17.40;66.83;98304.34;7380419;19;19929;-78
2023/06/06 02:30:15;;;;;;;;;;;;;;;17.38;66.77;98306.41;7381018;19;19918;-79
2023/06/06 02:32:42;;;;;;;;;;;;;;;17.39;66.62;98310.72;7386170;19;19919;-79
2023/06/06 02:35:09;;;;;;;;;;;;;;;17.35;66.59;98304.94;7379997;19;19923;-78
2023/06/06 02:37:35;;;;;;;;;;;;;;;17.32;66.70;98310.69;7376773;19;19939;-78
2023/06/06 02:40:08;;;;;;;;;;;;;;;17.30;66.78;98302.91;7381694;19;19923;-78
2023/06/06 02:42:38;;;;;;;;;;;;;;;17.27;66.60;98311.31;7383494;19;20287;-78
2023/06/06 02:45:07;;;;;;;;;;;;;;;17.20;66.71;98315.81;7380463;19;20030;-79
2023/06/06 02:47:34;;;;;;;;;;;;;;;17.17;66.64;98310.88;7383254;19;19927;-79
2023/06/06 02:50:02;;;;;;;;;;;;;;;17.17;66.82;98312.69;7390703;19;19917;-79
2023/06/06 02:52:31;;;;;;;;;;;;;;;17.15;66.77;98314.75;7378856;19;19923;-79
2023/06/06 02:54:58;;;;;;;;;;;;;;;17.09;66.88;98314.53;7380836;19;20327;-79
2023/06/06 02:57:25;;;;;;;;;;;;;;;17.09;67.14;98322.56;7381824;19;20831;-79
2023/06/06 02:59:53;;;;;;;;;;;;;;;17.06;67.23;98325.63;7385553;19;19930;-79
2023/06/06 03:02:20;;;;;;;;;;;;;;;17.02;67.72;98321.69;7381235;19;19979;-79
2023/06/06 03:04:47;;;;;;;;;;;;;;;17.02;68.01;98323.53;7380271;19;19923;-79
2023/06/06 03:07:16;;;;;;;;;;;;;;;17.00;67.95;98326.41;7382134;19;19938;-78
2023/06/06 03:09:43;;;;;;;;;;;;;;;16.99;67.99;98329.28;7381483;19;19994;-79
2023/06/06 03:12:17;;;;;;;;;;;;;;;16.95;67.63;98330.69;7378412;19;19919;-79
2023/06/06 03:14:44;;;;;;;;;;;;;;;16.91;67.67;98327.59;7382237;19;19978;-79
2023/06/06 03:17:25;;;;;;;;;;;;;;;16.91;68.05;98326.78;7380571;19;19915;-79
2023/06/06 03:19:52;;;;;;;;;;;;;;;16.88;67.97;98323.47;7383415;19;19947;-79
2023/06/06 03:22:20;;;;;;;;;;;;;;;16.85;68.17;98328.38;7380769;19;20292;-79
2023/06/06 03:24:49;;;;;;;;;;;;;;;16.85;67.73;98320.34;7379753;19;19918;-79
2023/06/06 03:27:17;;;;;;;;;;;;;;;16.82;67.65;98329.59;7375134;19;19923;-78
2023/06/06 03:29:45;;;;;;;;;;;;;;;16.82;67.61;98328.75;7381161;19;19922;-79
2023/06/06 03:32:12;;;;;;;;;;;;;;;16.82;67.71;98337.59;7380487;19;19934;-79
2023/06/06 03:34:39;;;;;;;;;;;;;;;16.80;67.97;98339.66;7386796;19;19923;-79
2023/06/06 03:37:06;;;;;;;;;;;;;;;16.82;67.70;98342.13;7387760;19;19929;-79
2023/06/06 03:39:34;;;;;;;;;;;;;;;16.83;67.75;98343.78;7388490;19;19932;-79
2023/06/06 03:42:02;;;;;;;;;;;;;;;16.75;67.38;98347.41;7387716;19;19918;-78
2023/06/06 03:44:29;;;;;;;;;;;;;;;16.67;68.35;98345.72;7378466;19;19915;-79
2023/06/06 03:46:56;;;;;;;;;;;;;;;16.64;68.61;98343.44;7385166;19;19943;-78
2023/06/06 03:49:23;;;;;;;;;;;;;;;16.69;68.50;98348.16;7384706;19;19986;-78
2023/06/06 03:51:49;;;;;;;;;;;;;;;16.73;68.67;98352.13;7384991;19;19921;-78
2023/06/06 03:54:16;;;;;;;;;;;;;;;16.70;68.63;98351.69;7384813;19;20312;-79
2023/06/06 03:56:43;;;;;;;;;;;;;;;16.70;68.78;98355.19;7390308;19;19914;-79
2023/06/06 03:59:12;;;;;;;;;;;;;;;16.75;68.84;98358.09;7387222;19;19929;-78
2023/06/06 04:01:40;;;;;;;;;;;;;;;16.79;69.04;98358.56;7382247;19;19925;-79
2023/06/06 04:04:08;;;;;;;;;;;;;;;16.83;68.91;98359.81;7384478;19;19919;-78
2023/06/06 04:06:37;;;;;;;;;;;;;;;16.85;68.53;98363.09;7384813;19;19994;-78
2023/06/06 04:09:08;;;;;;;;;;;;;;;16.86;69.04;98362.91;7389375;19;19911;-79
2023/06/06 04:11:35;;;;;;;;;;;;;;;16.84;68.56;98359.59;7387349;19;19923;-78
2023/06/06 04:14:03;;;;;;;;;;;;;;;16.85;68.80;98363.09;7386997;19;19940;-78
2023/06/06 04:16:30;;;;;;;;;;;;;;;16.86;69.11;98367.44;7383063;19;19911;-78
2023/06/06 04:18:57;;;;;;;;;;;;;;;16.88;69.15;98362.75;7384638;19;19926;-79
2023/06/06 04:21:24;;;;;;;;;;;;;;;16.81;68.38;98361.84;7382640;19;19957;-79
2023/06/06 04:23:50;;;;;;;;;;;;;;;16.82;68.42;98363.50;7386770;19;19923;-79
2023/06/06 04:26:31;;;;;;;;;;;;;;;16.81;68.32;98361.84;7386912;19;19923;-80
2023/06/06 04:29:02;;;;;;;;;;;;;;;16.86;68.57;98367.44;7388179;19;20278;-79
2023/06/06 04:31:29;;;;;;;;;;;;;;;16.88;68.79;98366.22;7384563;19;20413;-78
2023/06/06 04:33:56;;;;;;;;;;;;;;;16.91;68.57;98366.88;7381646;19;19936;-80
2023/06/06 04:36:26;;;;;;;;;;;;;;;16.94;68.73;98363.78;7384861;19;19935;-78
2023/06/06 04:39:00;;;;;;;;;;;;;;;16.95;68.52;98374.28;7388704;19;20274;-78
2023/06/06 04:41:30;;;;;;;;;;;;;;;16.97;67.94;98364.22;7383763;19;19934;-79
2023/06/06 04:44:19;;;;;;;;;;;;;;;16.97;67.76;98368.75;7386199;19;19964;-79
2023/06/06 04:46:47;;;;;;;;;;;;;;;16.99;67.74;98367.53;7386472;19;21071;-79
2023/06/06 04:49:15;;;;;;;;;;;;;;;17.04;67.74;98374.97;7383938;19;20253;-79
2023/06/06 04:51:44;;;;;;;;;;;;;;;16.98;66.48;98373.91;7376637;19;19922;-78
2023/06/06 04:54:11;;;;;;;;;;;;;;;16.97;66.92;98377.56;7388173;19;19922;-79
2023/06/06 04:56:39;;;;;;;;;;;;;;;17.03;67.32;98382.13;7390222;19;19926;-78
2023/06/06 04:59:06;;;;;;;;;;;;;;;17.07;68.07;98387.91;7386587;19;19986;-78
2023/06/06 05:01:36;;;;;;;;;;;;;;;17.09;67.38;98384.03;7384486;19;19933;-78
2023/06/06 05:04:07;;;;;;;;;;;;;;;17.10;68.52;98387.53;7387682;19;19927;-79
2023/06/06 05:06:34;;;;;;;;;;;;;;;17.09;67.65;98381.34;7378558;19;19923;-79
2023/06/06 05:09:03;;;;;;;;;;;;;;;17.09;67.59;98381.34;7384821;19;20375;-79
2023/06/06 05:11:30;;;;;;;;;;;;;;;17.12;67.65;98380.13;7385470;19;19947;-79
2023/06/06 05:13:57;;;;;;;;;;;;;;;17.13;67.81;98376.44;7386091;19;19922;-79
2023/06/06 05:16:24;;;;;;;;;;;;;;;17.10;66.71;98383.00;7388338;19;19925;-79
2023/06/06 05:18:50;;;;;;;;;;;;;;;17.14;66.24;98382.59;7391302;19;19948;-79
2023/06/06 05:21:20;;;;;;;;;;;;;;;17.22;66.63;98382.44;7387269;19;19915;-78
2023/06/06 05:23:47;;;;;;;;;;;;;;;17.21;66.02;98384.28;7386999;19;19974;-79
2023/06/06 05:26:13;;;;;;;;;;;;;;;17.27;65.71;98390.69;7385021;19;19927;-78
2023/06/06 05:28:40;;;;;;;;;;;;;;;17.27;65.59;98383.50;7390825;19;19935;-79
2023/06/06 05:31:07;;;;;;;;;;;;;;;17.26;65.51;98387.19;7387804;19;19923;-79
2023/06/06 05:33:38;;;;;;;;;;;;;;;17.30;65.10;98391.13;7388076;19;19934;-79
2023/06/06 05:36:05;;;;;;;;;;;;;;;17.40;64.96;98393.41;7390474;19;19921;-79
2023/06/06 05:38:32;;;;;;;;;;;;;;;17.40;64.24;98390.75;7382386;19;19925;-79
2023/06/06 05:40:59;;;;;;;;;;;;;;;17.43;64.02;98395.72;7382927;19;19978;-79
2023/06/06 05:43:27;;;;;;;;;;;;;;;17.50;65.82;98398.41;7385970;19;19927;-79
2023/06/06 05:45:54;;;;;;;;;;;;;;;17.39;63.86;98401.66;7382893;19;19915;-79
2023/06/06 05:48:21;;;;;;;;;;;;;;;17.27;64.16;98402.22;7388585;19;19940;-79
2023/06/06 05:50:48;;;;;;;;;;;;;;;17.24;64.31;98399.09;7389013;19;19911;-78
2023/06/06 05:53:14;;;;;;;;;;;;;;;17.18;64.31;98395.38;7385667;19;20603;-78
2023/06/06 05:55:43;;;;;;;;;;;;;;;17.18;64.79;98402.56;7383344;19;19927;-78
2023/06/06 05:58:12;;;;;;;;;;;;;;;17.22;64.87;98398.47;7390626;19;19922;-78
2023/06/06 06:00:39;;;;;;;;;;;;;;;17.29;64.96;98394.00;7394529;19;19922;-79
2023/06/06 06:03:07;;;;;;;;;;;;;;;17.44;64.57;98407.25;7393309;19;19923;-79
2023/06/06 06:05:34;;;;;;;;;;;;;;;17.54;64.35;98405.84;7387137;19;20288;-80
2023/06/06 06:08:02;;;;;;;;;;;;;;;17.68;64.93;98409.38;7382161;19;20363;-81
2023/06/06 06:10:29;;;;;;;;;;;;;;;17.81;64.92;98407.81;7386006;19;19923;-79
2023/06/06 06:12:55;;;;;;;;;;;;;;;17.89;64.16;98408.44;7385966;19;19943;-79
2023/06/06 06:15:22;;;;;;;;;;;;;;;17.92;63.31;98408.03;7378536;19;19910;-78
2023/06/06 06:17:49;;;;;;;;;;;;;;;17.86;63.08;98408.88;7386441;19;19923;-79
2023/06/06 06:20:16;;;;;;;;;;;;;;;17.90;62.83;98412.75;7389261;19;19911;-79
2023/06/06 06:22:43;;;;;;;;;;;;;;;17.90;62.41;98404.75;7387139;19;19918;-78
2023/06/06 06:25:13;;;;;;;;;;;;;;;17.88;61.56;98412.16;7382288;19;19995;-78
2023/06/06 06:27:40;;;;;;;;;;;;;;;17.84;61.86;98412.75;7389365;19;20010;-78
2023/06/06 06:30:07;;;;;;;;;;;;;;;17.80;63.26;98415.03;7384822;19;19927;-78
2023/06/06 06:32:34;;;;;;;;;;;;;;;17.82;64.35;98412.94;7384943;19;19925;-79
2023/06/06 06:35:04;;;;;;;;;;;;;;;17.88;63.44;98412.16;7387238;19;20134;-78
2023/06/06 06:37:31;;;;;;;;;;;;;;;17.89;63.26;98413.81;7385210;19;19974;-78
2023/06/06 06:39:58;;;;;;;;;;;;;;;17.97;63.61;98410.94;7387161;19;20234;-78
2023/06/06 06:42:26;;;;;;;;;;;;;;;18.03;62.47;98413.84;7387065;19;19990;-78
2023/06/06 06:45:13;;;;;;;;;;;;;;;18.08;62.28;98417.56;7377373;19;19930;-78
2023/06/06 06:47:40;;;;;;;;;;;;;;;18.13;61.80;98419.63;7379610;19;19918;-78
2023/06/06 06:50:07;;;;;;;;;;;;;;;18.08;62.63;98422.09;7384764;19;19971;-77
2023/06/06 06:52:35;;;;;;;;;;;;;;;18.06;61.41;98424.13;7386152;19;19923;-79
2023/06/06 06:55:04;;;;;;;;;;;;;;;18.15;61.10;98426.44;7386324;19;20007;-77
2023/06/06 06:57:32;;;;;;;;;;;;;;;18.20;61.57;98425.84;7387033;19;19919;-78
2023/06/06 06:59:59;;;;;;;;;;;;;;;18.27;61.21;98420.47;7384318;19;19918;-79
2023/06/06 07:02:30;;;;;;;;;;;;;;;18.37;61.04;98428.94;7384451;19;19944;-78
2023/06/06 07:04:57;;;;;;;;;;;;;;;18.47;61.25;98424.00;7375249;19;19914;-78
2023/06/06 07:07:24;;;;;;;;;;;;;;;18.50;59.49;98422.75;7378958;19;20325;-78
2023/06/06 07:09:51;;;;;;;;;;;;;;;18.57;59.94;98427.09;7386271;19;19974;-78
2023/06/06 07:12:20;;;;;;;;;;;;;;;18.61;59.70;98424.81;7389299;19;20360;-78
2023/06/06 07:14:46;;;;;;;;;;;;;;;18.65;60.53;98426.88;7384310;19;19923;-78
2023/06/06 07:17:15;;;;;;;;;;;;;;;18.86;60.61;98427.75;7386618;19;19911;-79
2023/06/06 07:19:42;;;;;;;;;;;;;;;18.95;60.51;98425.66;7380537;19;19931;-78
2023/06/06 07:22:10;;;;;;;;;;;;;;;18.88;58.30;98432.88;7379214;19;19922;-78
2023/06/06 07:24:36;;;;;;;;;;;;;;;18.94;59.83;98434.75;7382986;19;19994;-78
2023/06/06 07:27:04;;;;;;;;;;;;;;;19.05;60.31;98432.25;7381595;19;19918;-80
2023/06/06 07:29:31;;;;;;;;;;;;;;;19.01;57.48;98428.34;7385412;19;19933;-79
2023/06/06 07:31:58;;;;;;;;;;;;;;;19.11;56.87;98427.91;7389270;19;20009;-78
2023/06/06 07:34:25;;;;;;;;;;;;;;;19.18;56.58;98425.22;7386149;19;19942;-79
2023/06/06 07:36:52;;;;;;;;;;;;;;;19.20;56.08;98423.97;7387051;19;19929;-82
2023/06/06 07:39:19;;;;;;;;;;;;;;;19.27;55.74;98418.59;7383989;19;19914;-79
2023/06/06 07:41:46;;;;;;;;;;;;;;;19.28;56.74;98409.53;7379468;19;19922;-77
2023/06/06 07:44:15;;;;;;;;;;;;;;;19.34;55.92;98419.41;7382561;19;20002;-79
2023/06/06 07:46:43;;;;;;;;;;;;;;;19.46;58.40;98419.59;7382831;19;19926;-81
2023/06/06 07:49:11;;;;;;;;;;;;;;;19.53;59.33;98406.94;7386285;19;19910;-78
2023/06/06 07:51:40;;;;;;;;;;;;;;;19.57;56.57;98408.19;7407796;19;19975;-79
2023/06/06 07:54:07;;;;;;;;;;;;;;;19.71;58.22;98412.47;7398827;19;19935;-81
2023/06/06 07:56:37;;;;;;;;;;;;;;;19.72;56.06;98407.91;7405722;19;19918;-80
2023/06/06 07:59:03;;;;;;;;;;;;;;;19.81;54.28;98414.69;7408757;19;19903;-85
2023/06/06 08:01:31;;;;;;;;;;;;;;;19.84;54.33;98410.75;7407195;19;19935;-81
2023/06/06 08:03:59;;;;;;;;;;;;;;;20.04;54.23;98411.50;7406572;19;19942;-79
2023/06/06 08:06:27;;;;;;;;;;;;;;;20.08;53.71;98406.50;7399144;19;19947;-84
2023/06/06 08:08:54;;;;;;;;;;;;;;;20.10;50.08;98407.94;7396506;19;20263;-80
2023/06/06 08:11:21;;;;;;;;;;;;;;;20.11;50.77;98404.19;7383920;19;20025;-80
2023/06/06 08:13:48;;;;;;;;;;;;;;;20.21;48.52;98405.59;7385458;19;19915;-82
2023/06/06 08:16:14;;;;;;;;;;;;;;;20.33;49.86;98414.63;7391250;19;19918;-81
2023/06/06 08:18:41;;;;;;;;;;;;;;;20.41;48.48;98416.22;7388387;19;19929;-83
2023/06/06 08:21:08;;;;;;;;;;;;;;;20.41;45.97;98408.97;7392100;19;19918;-80
2023/06/06 08:23:34;;;;;;;;;;;;;;;20.44;47.33;98411.22;7393345;19;19943;-79
2023/06/06 08:26:01;;;;;;;;;;;;;;;20.52;47.57;98408.25;7390952;19;19934;-81
2023/06/06 08:28:28;;;;;;;;;;;;;;;20.62;49.45;98399.75;7393613;19;19953;-78
2023/06/06 08:30:55;;;;;;;;;;;;;;;20.64;46.93;98410.25;7391109;19;19918;-79
2023/06/06 08:33:22;;;;;;;;;;;;;;;20.70;45.84;98404.84;7394795;19;19911;-80
2023/06/06 08:35:48;;;;;;;;;;;;;;;20.81;47.19;98406.78;7393205;19;19915;-79
2023/06/06 08:38:15;;;;;;;;;;;;;;;20.88;47.14;98404.06;7394744;19;19911;-78
2023/06/06 08:40:42;;;;;;;;;;;;;;;20.99;46.39;98410.56;7393013;19;20018;-83
2023/06/06 08:43:10;;;;;;;;;;;;;;;21.05;45.28;98399.72;7391758;19;19943;-78
2023/06/06 08:45:39;;;;;;;;;;;;;;;21.10;46.81;98403.63;7382453;19;19917;-78
2023/06/06 08:48:06;;;;;;;;;;;;;;;21.07;44.57;98404.09;7391673;19;20415;-82
2023/06/06 08:50:35;;;;;;;;;;;;;;;21.21;45.63;98397.50;7388490;19;19919;-76
2023/06/06 08:53:04;;;;;;;;;;;;;;;21.22;44.05;98402.69;7385230;19;19923;-78
2023/06/06 08:55:32;;;;;;;;;;;;;;;21.16;44.96;98403.56;7388734;19;19935;-76
2023/06/06 08:57:59;;;;;;;;;;;;;;;21.23;43.48;98403.50;7392599;19;19930;-83
2023/06/06 09:00:26;;;;;;;;;;;;;;;21.27;44.16;98405.53;7387467;19;19918;-80
2023/06/06 09:02:53;;;;;;;;;;;;;;;21.30;45.26;98398.03;7386579;19;19925;-77
2023/06/06 09:05:20;;;;;;;;;;;;;;;21.34;44.52;98394.66;7391612;19;19918;-79
2023/06/06 09:07:51;;;;;;;;;;;;;;;21.36;43.75;98402.53;7391550;19;19922;-79
2023/06/06 09:10:18;;;;;;;;;;;;;;;21.45;46.19;98403.88;7393234;19;19927;-78
2023/06/06 09:12:52;;;;;;;;;;;;;;;21.53;44.92;98408.16;7391900;19;19926;-77
2023/06/06 09:15:19;;;;;;;;;;;;;;;21.53;45.42;98397.38;7389720;19;19929;-79
2023/06/06 09:17:46;;;;;;;;;;;;;;;21.70;44.12;98406.50;7384294;19;19922;-81
2023/06/06 09:20:16;;;;;;;;;;;;;;;21.82;45.32;98401.97;7386673;19;19982;-79
2023/06/06 09:22:43;;;;;;;;;;;;;;;21.85;43.38;98400.69;7390314;19;19915;-79
2023/06/06 09:25:17;;;;;;;;;;;;;;;21.88;44.22;98401.06;7385738;19;20281;-78
2023/06/06 09:27:44;;;;;;;;;;;;;;;21.99;43.84;98393.28;7390246;19;19923;-79
2023/06/06 09:30:20;;;;;;;;;;;;;;;22.12;44.58;98395.78;7389885;19;19935;-84
2023/06/06 09:32:51;;;;;;;;;;;;;;;22.11;42.54;98391.41;7391892;19;20443;-80
2023/06/06 09:35:18;;;;;;;;;;;;;;;22.18;41.76;98397.53;7387646;19;19919;-80
2023/06/06 09:37:46;;;;;;;;;;;;;;;22.17;42.48;98393.22;7390067;19;19914;-82
2023/06/06 09:40:17;;;;;;;;;;;;;;;22.37;44.59;98389.41;7390248;19;20467;-81
2023/06/06 09:42:44;;;;;;;;;;;;;;;22.47;43.48;98378.88;7393276;19;19947;-84
2023/06/06 09:45:11;;;;;;;;;;;;;;;22.57;43.96;98371.84;7383867;19;19933;-78
2023/06/06 09:47:38;;;;;;;;;;;;;;;22.71;42.24;98383.22;7390568;19;19923;-82
2023/06/06 09:50:05;;;;;;;;;;;;;;;22.80;43.65;98381.00;7390467;19;20265;-77
2023/06/06 09:52:32;;;;;;;;;;;;;;;22.98;42.93;98378.19;7382605;19;19918;-78
2023/06/06 09:55:16;;;;;;;;;;;;;;;23.40;42.79;98388.00;7389136;19;19929;-79
2023/06/06 09:57:43;;;;;;;;;;;;;;;23.75;41.32;98379.84;7388795;19;23128;-81
2023/06/06 10:00:15;;;;;;;;;;;;;;;23.94;38.24;98380.47;7386765;19;19915;-82
2023/06/06 10:02:42;;;;;;;;;;;;;;;24.15;39.61;98381.66;7387674;19;20005;-78
2023/06/06 10:05:11;;;;;;;;;;;;;;;23.81;40.49;98376.16;7382052;19;19921;-78
2023/06/06 10:07:44;;;;;;;;;;;;;;;23.77;39.15;98368.78;7386618;19;19927;-81
2023/06/06 10:10:12;;;;;;;;;;;;;;;24.38;38.23;98369.03;7389545;19;19927;-79
2023/06/06 10:12:40;;;;;;;;;;;;;;;24.71;39.41;98368.25;7389852;19;19915;-79
2023/06/06 10:15:11;;;;;;;;;;;;;;;25.10;37.93;98360.16;7393013;19;19931;-82
2023/06/06 10:17:39;;;;;;;;;;;;;;;24.69;37.96;98362.28;7386949;19;19940;-78
2023/06/06 10:20:07;;;;;;;;;;;;;;;24.92;39.02;98353.94;7386742;19;19933;-77
2023/06/06 10:22:34;;;;;;;;;;;;;;;24.61;38.66;98359.97;7379575;19;19915;-79
2023/06/06 10:25:04;;;;;;;;;;;;;;;24.66;38.06;98349.25;7379807;19;19918;-79
2023/06/06 10:27:43;;;;;;;;;;;;;;;24.60;37.95;98353.75;7392468;19;20328;-84
2023/06/06 10:30:14;;;;;;;;;;;;;;;24.84;38.01;98354.38;7388484;19;20276;-84
2023/06/06 10:33:01;;;;;;;;;;;;;;;24.76;35.60;98357.50;7385566;19;20560;-80
2023/06/06 10:35:28;;;;;;;;;;;;;;;24.40;37.75;98356.09;7390596;19;19922;-83
2023/06/06 10:38:04;;;;;;;;;;;;;;;24.14;36.88;98355.66;7389121;19;19911;-84
2023/06/06 10:41:04;;;;;;;;;;;;;;;23.90;37.07;98356.88;7381606;19;19929;-80
2023/06/06 10:43:43;;;;;;;;;;;;;;;23.88;39.69;98359.81;7379328;19;19914;-78
2023/06/06 10:46:11;;;;;;;;;;;;;;;23.87;37.31;98347.38;7388631;19;19918;-78
2023/06/06 10:48:41;;;;;;;;;;;;;;;23.78;39.85;98354.22;7384207;19;19947;-77
2023/06/06 10:51:08;;;;;;;;;;;;;;;23.79;40.01;98345.06;7383771;19;19923;-77
2023/06/06 10:53:35;;;;;;;;;;;;;;;23.95;38.16;98343.44;7382585;19;20346;-78
2023/06/06 10:56:05;;;;;;;;;;;;;;;24.09;38.02;98345.63;7389539;19;21392;-83
2023/06/06 10:58:33;;;;;;;;;;;;;;;24.15;39.08;98340.31;7386974;19;20345;-79
2023/06/06 11:01:03;;;;;;;;;;;;;;;23.84;38.24;98337.88;7384488;19;19911;-85
2023/06/06 11:03:39;;;;;;;;;;;;;;;23.95;39.27;98333.47;7387970;19;19937;-79
2023/06/06 11:06:08;;;;;;;;;;;;;;;23.46;38.60;98338.47;7390258;19;19940;-82
2023/06/06 11:08:45;;;;;;;;;;;;;;;23.62;38.73;98334.19;7389687;19;19933;-81
2023/06/06 11:11:16;;;;;;;;;;;;;;;23.58;37.48;98336.53;7386921;19;20333;-82
2023/06/06 11:13:53;;;;;;;;;;;;;;;23.73;37.52;98330.66;7386904;19;19918;-78
2023/06/06 11:16:29;;;;;;;;;;;;;;;23.61;39.60;98325.25;7387761;19;19918;-81
2023/06/06 11:19:03;;;;;;;;;;;;;;;23.84;39.89;98321.66;7391531;19;19919;-79
2023/06/06 11:21:31;;;;;;;;;;;;;;;23.84;39.11;98328.94;7385996;19;19915;-79
2023/06/06 11:23:58;;;;;;;;;;;;;;;23.93;37.10;98324.78;7395424;19;19939;-80
2023/06/06 11:26:27;;;;;;;;;;;;;;;23.98;37.79;98324.03;7399308;19;19925;-84
2023/06/06 11:28:55;;;;;;;;;;;;;;;23.76;37.47;98326.63;7392492;19;19971;-80
2023/06/06 11:31:23;;;;;;;;;;;;;;;23.77;39.24;98322.88;7384358;19;19918;-78
2023/06/06 11:33:50;;;;;;;;;;;;;;;23.60;38.12;98315.50;7385711;19;19922;-79
2023/06/06 11:36:17;;;;;;;;;;;;;;;23.69;37.06;98323.22;7389412;19;19931;-80
2023/06/06 11:38:47;;;;;;;;;;;;;;;24.02;39.27;98323.31;7395216;19;19938;-81
2023/06/06 11:41:13;;;;;;;;;;;;;;;24.17;37.69;98316.53;7390774;19;19914;-82
2023/06/06 11:43:50;;;;;;;;;;;;;;;24.43;38.14;98315.06;7384072;19;19954;-78
2023/06/06 11:46:20;;;;;;;;;;;;;;;24.49;37.67;98309.53;7382918;19;20856;-79
2023/06/06 11:48:56;;;;;;;;;;;;;;;24.52;36.34;98322.53;7385133;19;19989;-81
2023/06/06 11:51:27;;;;;;;;;;;;;;;24.35;37.77;98316.28;7382739;19;20635;-80
2023/06/06 11:53:54;;;;;;;;;;;;;;;24.09;36.50;98315.88;7388024;19;19994;-83
2023/06/06 11:56:22;;;;;;;;;;;;;;;23.83;36.81;98316.50;7396740;19;19919;-80
2023/06/06 11:58:48;;;;;;;;;;;;;;;23.82;36.49;98310.25;7395962;19;19974;-81
2023/06/06 12:01:15;;;;;;;;;;;;;;;23.96;36.47;98305.41;7389949;19;19922;-81
2023/06/06 12:03:42;;;;;;;;;;;;;;;24.09;35.87;98312.34;7389494;19;19914;-82
2023/06/06 12:06:10;;;;;;;;;;;;;;;24.22;35.03;98308.50;7385120;19;19997;-77
2023/06/06 12:08:40;;;;;;;;;;;;;;;24.29;35.43;98312.69;7394068;19;19990;-82
2023/06/06 12:11:26;;;;;;;;;;;;;;;24.25;38.11;98310.72;7395550;19;19915;-79
2023/06/06 12:13:54;;;;;;;;;;;;;;;24.44;37.23;98301.31;7393067;19;19930;-78
2023/06/06 12:16:20;;;;;;;;;;;;;;;24.59;36.36;98294.50;7394966;19;20357;-79
2023/06/06 12:18:48;;;;;;;;;;;;;;;24.66;36.95;98300.56;7395635;19;19943;-80
2023/06/06 12:21:16;;;;;;;;;;;;;;;24.55;35.92;98305.00;7389296;19;19915;-80
2023/06/06 12:23:46;;;;;;;;;;;;;;;24.61;35.40;98314.00;7394116;19;19992;-81
2023/06/06 12:26:13;;;;;;;;;;;;;;;24.58;34.88;98309.09;7392145;19;19923;-81
2023/06/06 12:28:56;;;;;;;;;;;;;;;24.60;35.10;98309.66;7391092;19;19913;-79
2023/06/06 12:31:23;;;;;;;;;;;;;;;24.60;36.09;98306.97;7389291;19;19983;-79
2023/06/06 12:33:51;;;;;;;;;;;;;;;24.51;36.70;98299.28;7387776;19;20428;-78
2023/06/06 12:36:19;;;;;;;;;;;;;;;24.51;36.47;98303.84;7386243;19;19922;-79
2023/06/06 12:38:58;;;;;;;;;;;;;;;24.46;36.59;98296.50;7387072;19;19914;-81
2023/06/06 12:41:42;;;;;;;;;;;;;;;24.51;35.14;98304.69;7392226;19;19933;-81
2023/06/06 12:44:11;;;;;;;;;;;;;;;24.52;36.18;98300.91;7391755;19;19918;-82
2023/06/06 12:46:38;;;;;;;;;;;;;;;24.52;35.49;98300.09;7386921;19;20316;-78
2023/06/06 12:49:05;;;;;;;;;;;;;;;24.38;35.56;98296.88;7394246;19;19946;-77
2023/06/06 12:51:34;;;;;;;;;;;;;;;24.60;35.98;98296.16;7387585;19;19951;-80
2023/06/06 12:54:03;;;;;;;;;;;;;;;24.81;35.58;98281.84;7390285;19;19919;-80
2023/06/06 12:56:30;;;;;;;;;;;;;;;24.74;35.12;98281.19;7390208;19;19919;-79